KBGR/BGR METAR and TAF weather

Enter ICAO airport designator
Station Type Date Time Source
KBGR METAR 2021/10/22 19:53 UTC NOAA

KBGR 221953Z 24007KT 10SM FEW040 SCT250 20/12 A2976 RMK AO2 SLP076 T02000122


Station Type Date Time Source
KBGR Decoded METAR 2021/10/22 19:53 UTC NOAA

BANGOR INT'L AIRPORT, ME, United States (KBGR) 44-48N 068-49W 57M
Oct 22, 2021 - 03:53 PM EDT / 2021.10.22 1953 UTC
Wind: from the WSW (240 degrees) at 8 MPH (7 KT):0
Visibility: 10 mile(s):0
Sky conditions: partly cloudy
Temperature: 68.0 F (20.0 C)
Dew Point: 54.0 F (12.2 C)
Relative Humidity: 60%
Pressure (altimeter): 29.76 in. Hg (1007 hPa)
ob: KBGR 221953Z 24007KT 10SM FEW040 SCT250 20/12 A2976 RMK AO2 SLP076 T02000122
cycle: 20

Station Type Date Time Source
KBGR TAF 2021/10/22 20:51 UTC NOAA

TAF
AMD KBGR 221949Z 2220/2318 25009KT P6SM BKN030
FM222100 28008KT P6SM BKN035
FM230100 32004KT P6SM BKN045

Example: see airport list